VJT13 SABE-SAZN
Flight info
| Callsign | VJT13 |
|---|---|
| Flight time | N/A |
| Altitude | 43000 |
| Route | PAL9 TORUL UT654 BIXIM UT669 ROPON ROPON3Q |
| Aircraft | CL30/M-SDFGIRW/S |
Departure
| Time | N/A |
|---|---|
| Airport | Aeroparque Jorge Newbery (SABE) |
Arrival
| Time | 2026-05-08 14:42 |
|---|---|
| Airport | Presidente Perón International Airport (SAZN) |
| Time | Latitude | Longitude | Altitude | Speed | Heading |
|---|---|---|---|---|---|
| 2026-05-08 13:31 | -36.24152 | -60.97306 | 42670 ft | 431 kts | 237° |
| 2026-05-08 13:32 | -36.27565 | -61.03428 | 42688 ft | 431 kts | 237° |
| 2026-05-08 13:32 | -36.30944 | -61.09501 | 42708 ft | 431 kts | 237° |
| 2026-05-08 13:33 | -36.32305 | -61.11950 | 42716 ft | 431 kts | 237° |
| 2026-05-08 13:33 | -36.34507 | -61.15915 | 42729 ft | 430 kts | 237° |
| 2026-05-08 13:34 | -36.37899 | -61.22033 | 42749 ft | 434 kts | 237° |
| 2026-05-08 13:34 | -36.41375 | -61.28319 | 42752 ft | 446 kts | 236° |
| 2026-05-08 13:35 | -36.44870 | -61.34650 | 42749 ft | 449 kts | 236° |
| 2026-05-08 13:35 | -36.48360 | -61.40982 | 42744 ft | 441 kts | 236° |
| 2026-05-08 13:36 | -36.51790 | -61.47216 | 42739 ft | 433 kts | 236° |
| 2026-05-08 13:36 | -36.55126 | -61.53293 | 42733 ft | 426 kts | 236° |
| 2026-05-08 13:37 | -36.58440 | -61.59341 | 42727 ft | 419 kts | 236° |
| 2026-05-08 13:37 | -36.61679 | -61.65261 | 42722 ft | 413 kts | 237° |
| 2026-05-08 13:38 | -36.64876 | -61.71115 | 42722 ft | 407 kts | 237° |
| 2026-05-08 13:38 | -36.68034 | -61.76907 | 42721 ft | 402 kts | 237° |
| 2026-05-08 13:39 | -36.71134 | -61.82603 | 42721 ft | 397 kts | 237° |
| 2026-05-08 13:39 | -36.74200 | -61.88246 | 42797 ft | 390 kts | 237° |
| 2026-05-08 13:40 | -36.77223 | -61.93817 | 42784 ft | 386 kts | 237° |
| 2026-05-08 13:40 | -36.80217 | -61.99346 | 42754 ft | 383 kts | 237° |
| 2026-05-08 13:41 | -36.83158 | -62.04789 | 42747 ft | 379 kts | 237° |
| 2026-05-08 13:41 | -36.86081 | -62.10203 | 42746 ft | 375 kts | 237° |
| 2026-05-08 13:42 | -36.88972 | -62.15566 | 42746 ft | 371 kts | 237° |
| 2026-05-08 13:42 | -36.91827 | -62.20871 | 42752 ft | 367 kts | 237° |
| 2026-05-08 13:43 | -36.94643 | -62.26112 | 42752 ft | 363 kts | 237° |
| 2026-05-08 13:43 | -36.97445 | -62.31335 | 42745 ft | 360 kts | 237° |
| 2026-05-08 13:44 | -37.00205 | -62.36488 | 42744 ft | 356 kts | 236° |
| 2026-05-08 13:44 | -37.02929 | -62.41582 | 42745 ft | 352 kts | 236° |
| 2026-05-08 13:45 | -37.05622 | -62.46626 | 42759 ft | 348 kts | 236° |
| 2026-05-08 13:45 | -37.08289 | -62.51629 | 42762 ft | 345 kts | 236° |
| 2026-05-08 13:46 | -37.10942 | -62.56611 | 42757 ft | 341 kts | 236° |
| 2026-05-08 13:46 | -37.13562 | -62.61539 | 42746 ft | 339 kts | 236° |
| 2026-05-08 13:47 | -37.16154 | -62.66421 | 42757 ft | 335 kts | 237° |
| 2026-05-08 13:47 | -37.18700 | -62.71227 | 42790 ft | 331 kts | 237° |
| 2026-05-08 13:48 | -37.21226 | -62.75997 | 42823 ft | 328 kts | 237° |
| 2026-05-08 13:48 | -37.23737 | -62.80750 | 42854 ft | 324 kts | 237° |
| 2026-05-08 13:49 | -37.26195 | -62.85406 | 42885 ft | 320 kts | 237° |
| 2026-05-08 13:49 | -37.28643 | -62.90051 | 42910 ft | 317 kts | 237° |
| 2026-05-08 13:50 | -37.31045 | -62.94613 | 42893 ft | 314 kts | 237° |
| 2026-05-08 13:50 | -37.33450 | -62.99188 | 42890 ft | 318 kts | 237° |
| 2026-05-08 13:51 | -37.35626 | -63.04108 | 42895 ft | 328 kts | 243° |
| 2026-05-08 13:51 | -37.37642 | -63.09358 | 42902 ft | 339 kts | 243° |
| 2026-05-08 13:52 | -37.39702 | -63.14766 | 42917 ft | 349 kts | 244° |
| 2026-05-08 13:52 | -37.41806 | -63.20320 | 42916 ft | 359 kts | 244° |
| 2026-05-08 13:53 | -37.43968 | -63.26043 | 42916 ft | 369 kts | 243° |
| 2026-05-08 13:53 | -37.46188 | -63.31932 | 42911 ft | 379 kts | 243° |
| 2026-05-08 13:54 | -37.48473 | -63.38009 | 42914 ft | 388 kts | 243° |
| 2026-05-08 13:54 | -37.50786 | -63.44175 | 42913 ft | 396 kts | 243° |
| 2026-05-08 13:55 | -37.53167 | -63.50536 | 42912 ft | 405 kts | 243° |
| 2026-05-08 13:56 | -37.56797 | -63.60254 | 42912 ft | 416 kts | 243° |
| 2026-05-08 13:56 | -37.59261 | -63.66873 | 42914 ft | 423 kts | 244° |
| 2026-05-08 13:57 | -37.61783 | -63.73657 | 42915 ft | 430 kts | 244° |
| 2026-05-08 13:57 | -37.64320 | -63.80498 | 42914 ft | 436 kts | 244° |
| 2026-05-08 13:58 | -37.66899 | -63.87468 | 42914 ft | 442 kts | 244° |
| 2026-05-08 13:58 | -37.69498 | -63.94510 | 42913 ft | 447 kts | 244° |
| 2026-05-08 13:59 | -37.72107 | -64.01593 | 42912 ft | 448 kts | 244° |
| 2026-05-08 13:59 | -37.74719 | -64.08704 | 42898 ft | 444 kts | 244° |
| 2026-05-08 14:00 | -37.77289 | -64.15717 | 42908 ft | 438 kts | 244° |
| 2026-05-08 14:00 | -37.79828 | -64.22659 | 42907 ft | 435 kts | 244° |
| 2026-05-08 14:01 | -37.82347 | -64.29562 | 42907 ft | 431 kts | 243° |
| 2026-05-08 14:01 | -37.84836 | -64.36398 | 42907 ft | 428 kts | 243° |
| 2026-05-08 14:02 | -37.87312 | -64.43218 | 42907 ft | 425 kts | 243° |
| 2026-05-08 14:02 | -37.89761 | -64.49973 | 42906 ft | 422 kts | 243° |
| 2026-05-08 14:03 | -37.92184 | -64.56674 | 42906 ft | 420 kts | 243° |
| 2026-05-08 14:03 | -37.94605 | -64.63387 | 42905 ft | 417 kts | 243° |
| 2026-05-08 14:04 | -37.96996 | -64.70027 | 42910 ft | 415 kts | 244° |
| 2026-05-08 14:04 | -37.99378 | -64.76659 | 42695 ft | 419 kts | 244° |
| 2026-05-08 14:04 | -38.00588 | -64.80035 | 42408 ft | 413 kts | 243° |
| 2026-05-08 14:05 | -38.01740 | -64.83253 | 42770 ft | 400 kts | 243° |
| 2026-05-08 14:05 | -38.04005 | -64.89584 | 42797 ft | 389 kts | 243° |
| 2026-05-08 14:06 | -38.06208 | -64.95757 | 42797 ft | 380 kts | 243° |
| 2026-05-08 14:06 | -38.08352 | -65.01776 | 42797 ft | 371 kts | 243° |
| 2026-05-08 14:07 | -38.10447 | -65.07671 | 42801 ft | 362 kts | 243° |
| 2026-05-08 14:07 | -38.12481 | -65.13403 | 42804 ft | 354 kts | 243° |
| 2026-05-08 14:08 | -38.14466 | -65.19012 | 42804 ft | 346 kts | 243° |
| 2026-05-08 14:08 | -38.16420 | -65.24538 | 42803 ft | 338 kts | 243° |
| 2026-05-08 14:09 | -38.18304 | -65.29881 | 42803 ft | 331 kts | 242° |
| 2026-05-08 14:09 | -38.20166 | -65.35170 | 42802 ft | 323 kts | 242° |
| 2026-05-08 14:10 | -38.21968 | -65.40298 | 42802 ft | 315 kts | 242° |
| 2026-05-08 14:10 | -38.23736 | -65.45335 | 42801 ft | 307 kts | 242° |
| 2026-05-08 14:11 | -38.25448 | -65.50221 | 42802 ft | 299 kts | 242° |
| 2026-05-08 14:11 | -38.26291 | -65.52630 | 42800 ft | 295 kts | 242° |
| 2026-05-08 14:11 | -38.27109 | -65.54971 | 42800 ft | 291 kts | 242° |
| 2026-05-08 14:11 | -38.27930 | -65.57320 | 42799 ft | 287 kts | 242° |
| 2026-05-08 14:12 | -38.28733 | -65.59622 | 42799 ft | 283 kts | 242° |
| 2026-05-08 14:12 | -38.29521 | -65.61881 | 42798 ft | 278 kts | 241° |
| 2026-05-08 14:12 | -38.30293 | -65.64098 | 42798 ft | 273 kts | 241° |
| 2026-05-08 14:12 | -38.31057 | -65.66290 | 42802 ft | 272 kts | 242° |
| 2026-05-08 14:13 | -38.31824 | -65.68494 | 42814 ft | 274 kts | 242° |
| 2026-05-08 14:13 | -38.32600 | -65.70721 | 42812 ft | 277 kts | 242° |
| 2026-05-08 14:13 | -38.33382 | -65.72970 | 42812 ft | 280 kts | 242° |
| 2026-05-08 14:13 | -38.34173 | -65.75246 | 42812 ft | 283 kts | 242° |
| 2026-05-08 14:14 | -38.34981 | -65.77573 | 42814 ft | 286 kts | 242° |
| 2026-05-08 14:14 | -38.35782 | -65.79884 | 42826 ft | 289 kts | 242° |
| 2026-05-08 14:14 | -38.36592 | -65.82222 | 42839 ft | 292 kts | 242° |
| 2026-05-08 14:14 | -38.37412 | -65.84591 | 42852 ft | 295 kts | 242° |
| 2026-05-08 14:15 | -38.38240 | -65.86986 | 42865 ft | 297 kts | 242° |
| 2026-05-08 14:15 | -38.39081 | -65.89417 | 42878 ft | 300 kts | 242° |
| 2026-05-08 14:15 | -38.39931 | -65.91880 | 42892 ft | 303 kts | 242° |
| 2026-05-08 14:16 | -38.41639 | -65.96812 | 42921 ft | 309 kts | 242° |
| 2026-05-08 14:16 | -38.43403 | -66.01887 | 42945 ft | 316 kts | 242° |
| 2026-05-08 14:17 | -38.45197 | -66.07051 | 42945 ft | 324 kts | 242° |
| 2026-05-08 14:17 | -38.47043 | -66.12373 | 42951 ft | 339 kts | 242° |
| 2026-05-08 14:18 | -38.48996 | -66.18012 | 42949 ft | 356 kts | 242° |
| 2026-05-08 14:18 | -38.51042 | -66.23938 | 42949 ft | 376 kts | 242° |
| 2026-05-08 14:19 | -38.53196 | -66.30189 | 42947 ft | 395 kts | 243° |
| 2026-05-08 14:19 | -38.55455 | -66.36758 | 42946 ft | 413 kts | 243° |
| 2026-05-08 14:20 | -38.57772 | -66.43514 | 42941 ft | 422 kts | 243° |
| 2026-05-08 14:20 | -38.60140 | -66.50424 | 41720 ft | 455 kts | 243° |
| 2026-05-08 14:20 | -38.61456 | -66.54271 | 39221 ft | 493 kts | 242° |
| 2026-05-08 14:21 | -38.62794 | -66.58198 | 38423 ft | 482 kts | 242° |
| 2026-05-08 14:21 | -38.64115 | -66.62073 | 37967 ft | 471 kts | 242° |
| 2026-05-08 14:21 | -38.65409 | -66.65876 | 37884 ft | 460 kts | 243° |
| 2026-05-08 14:21 | -38.66665 | -66.69568 | 37624 ft | 455 kts | 243° |
| 2026-05-08 14:22 | -38.67910 | -66.73236 | 37348 ft | 440 kts | 243° |
| 2026-05-08 14:22 | -38.69086 | -66.76704 | 37074 ft | 420 kts | 242° |
| 2026-05-08 14:22 | -38.70236 | -66.80100 | 36680 ft | 406 kts | 242° |
| 2026-05-08 14:22 | -38.71331 | -66.83333 | 36293 ft | 393 kts | 242° |
| 2026-05-08 14:23 | -38.72400 | -66.86491 | 35572 ft | 392 kts | 242° |
| 2026-05-08 14:23 | -38.73505 | -66.89738 | 32899 ft | 432 kts | 243° |
| 2026-05-08 14:23 | -38.74701 | -66.93278 | 31375 ft | 433 kts | 243° |
| 2026-05-08 14:23 | -38.75870 | -66.96755 | 30526 ft | 420 kts | 243° |
| 2026-05-08 14:24 | -38.77004 | -67.00128 | 29581 ft | 410 kts | 243° |
| 2026-05-08 14:24 | -38.78112 | -67.03434 | 28591 ft | 403 kts | 243° |
| 2026-05-08 14:24 | -38.79213 | -67.06715 | 28018 ft | 400 kts | 243° |
| 2026-05-08 14:24 | -38.80298 | -67.09949 | 27692 ft | 395 kts | 243° |
| 2026-05-08 14:25 | -38.81375 | -67.13168 | 27241 ft | 388 kts | 242° |
| 2026-05-08 14:25 | -38.82427 | -67.16312 | 26719 ft | 388 kts | 242° |
| 2026-05-08 14:25 | -38.83483 | -67.19470 | 26391 ft | 383 kts | 242° |
| 2026-05-08 14:25 | -38.84532 | -67.22611 | 26017 ft | 380 kts | 242° |
| 2026-05-08 14:26 | -38.85553 | -67.25673 | 25633 ft | 376 kts | 242° |
| 2026-05-08 14:26 | -38.86579 | -67.28751 | 25240 ft | 373 kts | 242° |
| 2026-05-08 14:26 | -38.87595 | -67.31805 | 24857 ft | 370 kts | 242° |
| 2026-05-08 14:26 | -38.88589 | -67.34796 | 24478 ft | 367 kts | 241° |
| 2026-05-08 14:27 | -38.89587 | -67.37801 | 24087 ft | 363 kts | 241° |
| 2026-05-08 14:27 | -38.90565 | -67.40743 | 23716 ft | 360 kts | 241° |
| 2026-05-08 14:27 | -38.91547 | -67.43704 | 23296 ft | 358 kts | 241° |
| 2026-05-08 14:27 | -38.92518 | -67.46637 | 23083 ft | 354 kts | 241° |
| 2026-05-08 14:28 | -38.93462 | -67.49492 | 22710 ft | 351 kts | 241° |
| 2026-05-08 14:28 | -38.94172 | -67.52502 | 22395 ft | 361 kts | 261° |
| 2026-05-08 14:28 | -38.92932 | -67.55421 | 20462 ft | 448 kts | 315° |
| 2026-05-08 14:28 | -38.90326 | -67.57460 | 17291 ft | 497 kts | 326° |
| 2026-05-08 14:29 | -38.88880 | -67.58590 | 15073 ft | 494 kts | 303° |
| 2026-05-08 14:33 | -38.88360 | -67.59982 | 14409 ft | 459 kts | 273° |
| 2026-05-08 14:33 | -38.90121 | -67.62686 | 12568 ft | 479 kts | 182° |
| 2026-05-08 14:34 | -38.92307 | -67.59777 | 12892 ft | 506 kts | 108° |
| 2026-05-08 14:34 | -38.91553 | -67.55424 | 10239 ft | 567 kts | 50° |
| 2026-05-08 14:34 | -38.89505 | -67.56780 | 7072 ft | 461 kts | 240° |
| 2026-05-08 14:34 | -38.91622 | -67.56099 | 3759 ft | 437 kts | 108° |
| 2026-05-08 14:35 | -38.92855 | -67.55390 | 4612 ft | 279 kts | 259° |
| 2026-05-08 14:35 | -38.92312 | -67.58088 | 3258 ft | 336 kts | 278° |
| 2026-05-08 14:35 | -38.91835 | -67.60891 | 3232 ft | 328 kts | 276° |
| 2026-05-08 14:35 | -38.91597 | -67.63876 | 3181 ft | 334 kts | 260° |
| 2026-05-08 14:36 | -38.92423 | -67.66322 | 3483 ft | 274 kts | 228° |
| 2026-05-08 14:36 | -38.93805 | -67.67736 | 3361 ft | 248 kts | 209° |
| 2026-05-08 14:36 | -38.95447 | -67.68431 | 2526 ft | 258 kts | 195° |
| 2026-05-08 14:36 | -38.96987 | -67.69210 | 2645 ft | 218 kts | 230° |
| 2026-05-08 14:37 | -38.97514 | -67.70906 | 3465 ft | 233 kts | 260° |
| 2026-05-08 14:37 | -38.97139 | -67.73186 | 3528 ft | 292 kts | 288° |
| 2026-05-08 14:37 | -38.96262 | -67.75572 | 3543 ft | 287 kts | 288° |
| 2026-05-08 14:37 | -38.95397 | -67.77885 | 3526 ft | 279 kts | 288° |
| 2026-05-08 14:38 | -38.94452 | -67.79918 | 3494 ft | 260 kts | 300° |
| 2026-05-08 14:38 | -38.93731 | -67.81802 | 3360 ft | 210 kts | 269° |
| 2026-05-08 14:38 | -38.93953 | -67.83437 | 3216 ft | 168 kts | 250° |
| 2026-05-08 14:38 | -38.94207 | -67.84853 | 2714 ft | 165 kts | 252° |
| 2026-05-08 14:39 | -38.94434 | -67.86424 | 2337 ft | 199 kts | 255° |
| 2026-05-08 14:39 | -38.94626 | -67.88339 | 2402 ft | 228 kts | 256° |
| 2026-05-08 14:39 | -38.94785 | -67.90450 | 2437 ft | 245 kts | 260° |
| 2026-05-08 14:39 | -38.94882 | -67.92687 | 2424 ft | 261 kts | 263° |
| 2026-05-08 14:40 | -38.94916 | -67.95059 | 2438 ft | 266 kts | 263° |
| 2026-05-08 14:40 | -38.94924 | -67.97407 | 2403 ft | 247 kts | 265° |
| 2026-05-08 14:40 | -38.94934 | -67.99543 | 1614 ft | 263 kts | 268° |
| 2026-05-08 14:40 | -38.94939 | -68.01993 | 1644 ft | 283 kts | 268° |
| 2026-05-08 14:41 | -38.94928 | -68.04477 | 1710 ft | 275 kts | 266° |
| 2026-05-08 14:41 | -38.94919 | -68.06920 | 1706 ft | 272 kts | 268° |
| 2026-05-08 14:41 | -38.94908 | -68.09296 | 1732 ft | 243 kts | 269° |
| 2026-05-08 14:41 | -38.94917 | -68.11183 | 1239 ft | 189 kts | 264° |
| 2026-05-08 14:42 | -38.94908 | -68.12678 | 1058 ft | 148 kts | 267° |
| 2026-05-08 14:42 | -38.94904 | -68.13845 | 934 ft | 116 kts | 262° |
| 2026-05-08 14:42 | -38.94910 | -68.14760 | 893 ft | 78 kts | 272° |
| 2026-05-08 14:42 | -38.94902 | -68.15201 | 896 ft | 29 kts | 268° |
| 2026-05-08 14:43 | -38.94908 | -68.15386 | 896 ft | 24 kts | 264° |